createdAt,value
2022-12-03T00:00:33.275Z,992
2022-12-03T00:05:53.199Z,992
2022-12-03T00:11:12.351Z,992
2022-12-03T00:16:32.089Z,991.9
2022-12-03T00:21:51.798Z,992
2022-12-03T00:27:11.272Z,992
2022-12-03T00:32:30.704Z,992
2022-12-03T00:37:58.714Z,992
2022-12-03T00:43:09.028Z,991.9
2022-12-03T00:48:28.298Z,992
2022-12-03T00:53:47.350Z,991.9
2022-12-03T00:59:14.033Z,992
2022-12-03T01:04:25.301Z,991.9
2022-12-03T01:09:44.632Z,992
2022-12-03T01:15:04.594Z,991.9
2022-12-03T01:20:24.367Z,991.9
2022-12-03T01:25:43.250Z,991.9
2022-12-03T01:31:02.211Z,992
2022-12-03T01:36:21.082Z,992
2022-12-03T01:41:40.419Z,992
2022-12-03T01:46:59.961Z,992
2022-12-03T01:52:19.465Z,992
2022-12-03T01:57:38.337Z,992
2022-12-03T02:02:57.371Z,992
2022-12-03T02:08:16.930Z,992
2022-12-03T02:13:35.627Z,992
2022-12-03T02:18:55.070Z,992
2022-12-03T02:24:14.677Z,992
2022-12-03T02:29:33.742Z,992
2022-12-03T02:34:53.846Z,992
2022-12-03T02:40:12.587Z,992
2022-12-03T02:45:40.839Z,992
2022-12-03T02:50:50.918Z,992
2022-12-03T02:56:10.237Z,991.9
2022-12-03T03:01:29.542Z,992
2022-12-03T03:06:48.556Z,992
2022-12-03T03:12:08.287Z,991.9
2022-12-03T03:17:27.488Z,992
2022-12-03T03:22:46.929Z,991.9
2022-12-03T03:28:06.584Z,991.9
2022-12-03T03:33:25.788Z,991.9
2022-12-03T03:38:45.528Z,992
2022-12-03T03:44:04.327Z,991.9
2022-12-03T03:49:24.062Z,991.9
2022-12-03T03:54:43.064Z,991.9
2022-12-03T04:00:02.087Z,991.8
2022-12-03T04:05:20.875Z,991.8
2022-12-03T04:10:39.745Z,991.8
2022-12-03T04:15:59.483Z,991.8
2022-12-03T04:21:28.424Z,991.7
2022-12-03T04:26:38.130Z,991.7
2022-12-03T04:31:57.821Z,991.7
2022-12-03T04:37:17.554Z,991.7
2022-12-03T04:42:37.336Z,991.6
2022-12-03T04:47:56.381Z,991.7
2022-12-03T04:53:15.515Z,991.7
2022-12-03T04:58:35.043Z,991.7
2022-12-03T05:03:53.927Z,991.7
2022-12-03T05:09:13.096Z,991.7
2022-12-03T05:14:42.994Z,991.6
2022-12-03T05:19:51.866Z,991.6
2022-12-03T05:25:20.111Z,991.7
2022-12-03T05:30:30.293Z,991.6
2022-12-03T05:35:49.565Z,991.5
2022-12-03T05:41:08.911Z,991.5
2022-12-03T05:46:29.014Z,991.5
2022-12-03T05:51:48.117Z,991.6
2022-12-03T05:57:08.048Z,991.5
2022-12-03T06:02:27.261Z,991.5
2022-12-03T06:07:46.223Z,991.5
2022-12-03T06:13:05.999Z,991.5
2022-12-03T06:18:25.272Z,991.5
2022-12-03T06:23:44.322Z,991.5
2022-12-03T06:29:03.541Z,991.5
2022-12-03T06:34:31.294Z,991.5
2022-12-03T06:39:51.934Z,991.5
2022-12-03T06:45:02.385Z,991.5
2022-12-03T06:50:21.316Z,991.5
2022-12-03T06:55:40.212Z,991.5
2022-12-03T07:00:59.597Z,991.6
2022-12-03T07:06:18.734Z,991.6
2022-12-03T07:11:38.606Z,991.6
2022-12-03T07:16:57.424Z,991.7
2022-12-03T07:22:16.714Z,991.7
2022-12-03T07:27:35.945Z,991.8
2022-12-03T07:32:54.772Z,991.8
2022-12-03T07:38:14.170Z,991.7
2022-12-03T07:43:33.996Z,991.8
2022-12-03T07:48:53.697Z,991.7
2022-12-03T07:54:12.445Z,991.8
2022-12-03T07:59:31.295Z,991.8
2022-12-03T08:04:58.846Z,991.7
2022-12-03T08:10:18.946Z,991.7
2022-12-03T08:15:33.757Z,991.6
2022-12-03T08:20:48.939Z,991.6
2022-12-03T08:26:08.332Z,991.6
2022-12-03T08:31:33.097Z,991.5
2022-12-03T08:36:46.873Z,991.4
2022-12-03T08:42:10.687Z,991.4
2022-12-03T08:47:26.463Z,991.5
2022-12-03T08:52:45.683Z,991.5
2022-12-03T08:58:05.372Z,991.5
2022-12-03T09:03:25.001Z,991.5
2022-12-03T09:08:43.925Z,991.6
2022-12-03T09:14:03.588Z,991.6
2022-12-03T09:19:31.416Z,991.6
2022-12-03T09:24:41.341Z,991.7
2022-12-03T09:30:08.861Z,991.7
2022-12-03T09:35:19.922Z,991.7
2022-12-03T09:40:38.983Z,991.6
2022-12-03T09:45:58.574Z,991.6
2022-12-03T09:51:18.045Z,991.5
2022-12-03T09:56:37.514Z,991.5
2022-12-03T10:01:56.587Z,991.4
2022-12-03T10:07:15.563Z,991.4
2022-12-03T10:12:35.374Z,991.3
2022-12-03T10:17:55.121Z,991.3
2022-12-03T10:23:14.485Z,991.2
2022-12-03T10:28:33.508Z,991.1
2022-12-03T10:33:52.807Z,991
2022-12-03T10:39:12.010Z,990.8
2022-12-03T10:44:30.907Z,990.8
2022-12-03T10:49:50.058Z,990.7
2022-12-03T10:55:42.083Z,990.7
2022-12-03T11:01:01.548Z,990.6
2022-12-03T11:06:20.725Z,990.5
2022-12-03T11:11:40.452Z,990.5
2022-12-03T11:17:00.159Z,990.6
2022-12-03T11:22:19.586Z,990.5
2022-12-03T11:27:39.135Z,990.5
2022-12-03T11:32:58.061Z,990.5
2022-12-03T11:38:17.065Z,990.5
2022-12-03T11:43:36.839Z,990.5
2022-12-03T11:48:56.143Z,990.4
2022-12-03T11:54:15.766Z,990.3
2022-12-03T11:59:35.524Z,990.3
2022-12-03T12:04:54.579Z,990.3
2022-12-03T12:10:12.440Z,990.3
2022-12-03T12:15:31.604Z,990.3
2022-12-03T12:20:50.951Z,990.2
2022-12-03T12:26:09.955Z,990.2
2022-12-03T12:31:29.641Z,990.1
2022-12-03T12:36:48.342Z,990.2
2022-12-03T12:42:08.385Z,990.1
2022-12-03T12:47:27.390Z,990.1
2022-12-03T12:52:46.953Z,990.1
2022-12-03T12:58:07.408Z,990
2022-12-03T13:03:26.453Z,989.9
2022-12-03T13:08:46.132Z,989.9
2022-12-03T13:14:05.210Z,989.9
2022-12-03T13:19:24.510Z,989.9
2022-12-03T13:24:53.305Z,989.8
2022-12-03T13:30:02.769Z,989.7
2022-12-03T13:35:22.191Z,989.7
2022-12-03T13:40:41.441Z,989.6
2022-12-03T13:46:00.538Z,989.6
2022-12-03T13:51:20.300Z,989.6
2022-12-03T13:56:39.618Z,989.6
2022-12-03T14:01:58.781Z,989.5
2022-12-03T14:07:17.815Z,989.5
2022-12-03T14:12:36.899Z,989.6
2022-12-03T14:17:55.751Z,989.6
2022-12-03T14:23:15.538Z,989.6
2022-12-03T14:28:35.071Z,989.7
2022-12-03T14:33:53.867Z,989.7
2022-12-03T14:39:12.741Z,989.7
2022-12-03T14:44:32.056Z,989.7
2022-12-03T14:49:51.947Z,989.7
2022-12-03T14:55:10.487Z,989.7
2022-12-03T15:00:37.154Z,989.7
2022-12-03T15:05:48.572Z,989.7
2022-12-03T15:11:08.125Z,989.7
2022-12-03T15:16:27.397Z,989.8
2022-12-03T15:21:46.456Z,989.7
2022-12-03T15:27:06.003Z,989.9
2022-12-03T15:32:25.084Z,989.9
2022-12-03T15:37:44.050Z,990
2022-12-03T15:43:03.642Z,990
2022-12-03T15:48:23.416Z,989.9
2022-12-03T15:53:42.459Z,989.9
2022-12-03T15:59:01.699Z,989.8
2022-12-03T16:04:20.657Z,989.8
2022-12-03T16:09:40.088Z,989.9
2022-12-03T16:14:59.686Z,989.8
2022-12-03T16:20:19.321Z,989.8
2022-12-03T16:25:39.072Z,989.7
2022-12-03T16:30:58.198Z,989.7
2022-12-03T16:36:17.949Z,989.6
2022-12-03T16:41:37.498Z,989.6
2022-12-03T16:46:56.392Z,989.5
2022-12-03T16:52:15.399Z,989.5
2022-12-03T16:57:34.971Z,989.5
2022-12-03T17:02:54.443Z,989.5
2022-12-03T17:08:13.375Z,989.6
2022-12-03T17:13:32.304Z,989.6
2022-12-03T17:18:51.373Z,989.6
2022-12-03T17:24:10.770Z,989.6
2022-12-03T17:29:30.523Z,989.6
2022-12-03T17:34:49.893Z,989.6
2022-12-03T17:40:09.216Z,989.5
2022-12-03T17:45:36.125Z,989.5
2022-12-03T17:50:47.894Z,989.5
2022-12-03T17:56:15.658Z,989.4
2022-12-03T18:01:26.347Z,989.3
2022-12-03T18:06:45.993Z,989.4
2022-12-03T18:12:05.070Z,989.3
2022-12-03T18:17:24.269Z,989.4
2022-12-03T18:22:43.116Z,989.4
2022-12-03T18:28:02.179Z,989.4
2022-12-03T18:33:21.714Z,989.4
2022-12-03T18:38:41.472Z,989.3
2022-12-03T18:44:08.740Z,989.3
2022-12-03T18:49:19.548Z,989.3
2022-12-03T18:59:58.953Z,989.3
2022-12-03T19:05:18.552Z,989.3
2022-12-03T19:10:37.357Z,989.2
2022-12-03T19:15:57.030Z,989.2
2022-12-03T19:21:16.381Z,989.2
2022-12-03T19:26:35.889Z,989.1
2022-12-03T19:31:55.453Z,989.1
2022-12-03T19:37:13.991Z,989
2022-12-03T19:42:33.458Z,989
2022-12-03T19:47:52.721Z,989
2022-12-03T19:53:12.118Z,989.1
2022-12-03T19:58:39.123Z,989.2
2022-12-03T20:03:50.189Z,989.2
2022-12-03T20:09:09.735Z,989.3
2022-12-03T20:14:28.533Z,989.2
2022-12-03T20:19:47.546Z,989.2
2022-12-03T20:25:07.089Z,989.2
2022-12-03T20:30:26.019Z,989.1
2022-12-03T20:35:45.699Z,989
2022-12-03T20:41:05.436Z,989.1
2022-12-03T20:46:33.399Z,989.1
2022-12-03T20:51:43.666Z,989.1
2022-12-03T20:57:02.209Z,989.1
2022-12-03T21:02:21.561Z,989
2022-12-03T21:07:40.309Z,989
2022-12-03T21:13:09.011Z,988.9
2022-12-03T21:18:19.252Z,988.9
2022-12-03T21:23:38.156Z,988.9
2022-12-03T21:28:58.144Z,989
2022-12-03T21:34:17.349Z,988.9
2022-12-03T21:39:36.127Z,988.8
2022-12-03T21:50:14.235Z,988.8
2022-12-03T21:55:33.388Z,988.8
2022-12-03T22:00:52.399Z,988.8
2022-12-03T22:06:12.117Z,988.7
2022-12-03T22:11:31.633Z,988.7
2022-12-03T22:16:51.058Z,988.7
2022-12-03T22:22:10.421Z,988.6
2022-12-03T22:27:29.499Z,988.6
2022-12-03T22:32:48.498Z,988.5
2022-12-03T22:38:08.317Z,988.6
2022-12-03T22:43:27.427Z,988.5
2022-12-03T22:48:46.502Z,988.5
2022-12-03T22:54:05.751Z,988.5
2022-12-03T22:59:25.267Z,988.5
2022-12-03T23:04:44.836Z,988.4
2022-12-03T23:10:04.683Z,988.4
2022-12-03T23:15:24.829Z,988.3
2022-12-03T23:20:44.055Z,988.2
2022-12-03T23:26:02.759Z,988.2
2022-12-03T23:31:22.534Z,988.2
2022-12-03T23:36:41.397Z,988.3
2022-12-03T23:42:00.422Z,988.2
2022-12-03T23:47:20.157Z,988.2
2022-12-03T23:52:39.509Z,988.2
2022-12-03T23:57:58.932Z,988.2
